Time;durP1;ratioP1;P1;durP2;ratioP2;P2;SDS_P1;SDS_P2;PMS_P1;PMS_P2;Temp;Humidity;BMP_temperature;BMP_pressure;BME280_temperature;BME280_humidity;BME280_pressure;Samples;Min_cycle;Max_cycle;Signal;HPM_P1;HPM_P2
2023/09/27 00:00:20;;;;;;;19.67;14.63;;;19.70;99.90;;;;;;5092740;28;20065;-68
2023/09/27 00:02:46;;;;;;;23.25;15.57;;;19.70;99.90;;;;;;5096291;28;20040;-69
2023/09/27 00:05:12;;;;;;;22.50;15.00;;;19.70;99.90;;;;;;5096128;28;20121;-69
2023/09/27 00:07:39;;;;;;;21.33;15.73;;;19.60;99.90;;;;;;5096445;28;20070;-69
2023/09/27 00:10:06;;;;;;;20.80;14.88;;;19.60;99.90;;;;;;5096470;28;20380;-68
2023/09/27 00:12:33;;;;;;;19.08;15.57;;;19.60;99.90;;;;;;5096401;28;20032;-68
2023/09/27 00:15:01;;;;;;;22.33;13.80;;;19.60;99.90;;;;;;5096672;28;20032;-68
2023/09/27 00:17:28;;;;;;;20.10;13.98;;;19.60;99.90;;;;;;5095934;28;20028;-69
2023/09/27 00:19:54;;;;;;;20.90;13.88;;;19.50;99.90;;;;;;5095916;28;20468;-70
2023/09/27 00:22:20;;;;;;;21.30;13.88;;;19.50;99.90;;;;;;5095500;28;20036;-69
2023/09/27 00:24:45;;;;;;;19.90;12.95;;;19.50;99.90;;;;;;5096188;28;20024;-69
2023/09/27 00:27:11;;;;;;;20.95;13.10;;;19.50;99.90;;;;;;5095962;28;20055;-70
2023/09/27 00:29:37;;;;;;;18.92;13.02;;;19.50;99.90;;;;;;5096110;28;20060;-69
2023/09/27 00:32:03;;;;;;;21.13;13.45;;;19.50;99.90;;;;;;5095731;28;20027;-70
2023/09/27 00:34:29;;;;;;;19.80;15.43;;;19.40;99.90;;;;;;5095892;28;20032;-69
2023/09/27 00:36:55;;;;;;;19.65;13.77;;;19.40;99.90;;;;;;5095894;28;20038;-68
2023/09/27 00:39:20;;;;;;;19.85;14.13;;;19.40;99.90;;;;;;5095112;28;20107;-68
2023/09/27 00:41:46;;;;;;;21.92;15.00;;;19.40;99.90;;;;;;5095851;28;20430;-69
2023/09/27 00:44:12;;;;;;;18.65;14.07;;;19.30;99.90;;;;;;5095405;28;20032;-68
2023/09/27 00:46:38;;;;;;;20.10;14.15;;;19.30;99.90;;;;;;5095965;28;20068;-68
2023/09/27 00:49:05;;;;;;;18.17;13.77;;;19.30;99.90;;;;;;5095403;28;20099;-68
2023/09/27 00:51:31;;;;;;;21.92;14.05;;;19.30;99.90;;;;;;5095216;28;20035;-69
2023/09/27 00:53:58;;;;;;;18.77;13.73;;;19.30;99.90;;;;;;5094733;28;20024;-68
2023/09/27 00:56:24;;;;;;;16.58;13.77;;;19.20;99.90;;;;;;5094690;28;20078;-68
2023/09/27 00:58:50;;;;;;;20.63;13.90;;;19.20;99.90;;;;;;5095163;28;20024;-70
2023/09/27 01:01:16;;;;;;;21.08;14.65;;;19.20;99.90;;;;;;5095060;28;20027;-69
2023/09/27 01:03:42;;;;;;;23.95;15.57;;;19.20;99.90;;;;;;5095536;28;20021;-69
2023/09/27 01:06:08;;;;;;;17.48;15.52;;;19.20;99.90;;;;;;5095662;28;20362;-69
2023/09/27 01:08:34;;;;;;;21.92;14.63;;;19.10;99.90;;;;;;5094862;28;20032;-67
2023/09/27 01:11:01;;;;;;;21.83;15.82;;;19.10;99.90;;;;;;5094084;28;20031;-69
2023/09/27 01:13:27;;;;;;;18.17;14.90;;;19.00;99.90;;;;;;5094864;28;20067;-69
2023/09/27 01:15:53;;;;;;;23.80;15.70;;;19.10;99.90;;;;;;5095228;28;20060;-69
2023/09/27 01:18:18;;;;;;;22.88;15.18;;;19.00;99.90;;;;;;5094662;28;20025;-69
2023/09/27 01:20:44;;;;;;;21.83;15.90;;;19.00;99.90;;;;;;5095053;28;20032;-69
2023/09/27 01:23:09;;;;;;;22.13;15.13;;;19.00;99.90;;;;;;5091530;28;20016;-69
2023/09/27 01:25:39;;;;;;;24.85;16.02;;;18.90;99.90;;;;;;5094825;28;20050;-69
2023/09/27 01:28:10;;;;;;;22.55;16.25;;;18.90;99.90;;;;;;5093389;28;20028;-69
2023/09/27 01:30:37;;;;;;;21.17;14.93;;;18.90;99.90;;;;;;5094648;28;20028;-69
2023/09/27 01:33:08;;;;;;;22.30;16.15;;;18.90;99.90;;;;;;5094431;28;20086;-68
2023/09/27 01:35:38;;;;;;;24.73;16.45;;;18.90;99.90;;;;;;5092780;28;20023;-69
2023/09/27 01:38:05;;;;;;;18.30;15.70;;;18.90;99.90;;;;;;5094910;28;20055;-69
2023/09/27 01:40:32;;;;;;;23.85;15.63;;;18.80;99.90;;;;;;5093971;28;20480;-69
2023/09/27 01:42:59;;;;;;;19.27;15.75;;;18.80;99.90;;;;;;5094726;28;20044;-69
2023/09/27 01:45:26;;;;;;;23.70;16.80;;;18.70;99.90;;;;;;5094288;28;20028;-69
2023/09/27 01:47:51;;;;;;;23.77;16.30;;;18.70;99.90;;;;;;5095032;28;20145;-69
2023/09/27 01:50:23;;;;;;;20.20;16.02;;;18.70;99.90;;;;;;5094208;28;20407;-70
2023/09/27 01:52:52;;;;;;;18.58;15.10;;;18.70;99.90;;;;;;5094459;28;20028;-68
2023/09/27 01:55:18;;;;;;;21.15;16.00;;;18.70;99.90;;;;;;5094111;28;20484;-70
2023/09/27 01:57:46;;;;;;;27.23;16.73;;;18.70;99.90;;;;;;5093848;28;20087;-69
2023/09/27 02:00:14;;;;;;;23.80;16.88;;;18.60;99.90;;;;;;5093971;28;20055;-69
2023/09/27 02:02:57;;;;;;;22.08;16.45;;;18.60;99.90;;;;;;5094088;28;20473;-69
2023/09/27 02:05:24;;;;;;;19.88;16.38;;;18.60;99.90;;;;;;5093279;28;20503;-69
2023/09/27 02:07:50;;;;;;;25.50;17.08;;;18.60;99.90;;;;;;5094080;28;20027;-69
2023/09/27 02:10:15;;;;;;;18.20;15.35;;;18.50;99.90;;;;;;5090637;28;20028;-71
2023/09/27 02:12:41;;;;;;;23.73;16.52;;;18.50;99.90;;;;;;5093810;28;20024;-69
2023/09/27 02:15:08;;;;;;;21.73;16.98;;;18.50;99.90;;;;;;5093944;28;20453;-69
2023/09/27 02:17:38;;;;;;;21.73;15.13;;;18.50;99.90;;;;;;5093568;28;20037;-69
2023/09/27 02:20:10;;;;;;;18.67;15.25;;;18.50;99.90;;;;;;5093795;28;20040;-69
2023/09/27 02:22:36;;;;;;;;;;;18.50;99.90;;;;;;5093937;28;20032;-69
2023/09/27 02:25:02;;;;;;;24.50;15.68;;;18.40;99.90;;;;;;5093836;28;20395;-69
2023/09/27 02:27:27;;;;;;;23.27;16.13;;;18.40;99.90;;;;;;5093349;28;20115;-70
2023/09/27 02:29:53;;;;;;;18.38;15.52;;;18.40;99.90;;;;;;5093704;28;20032;-69
2023/09/27 02:32:18;;;;;;;23.52;15.60;;;18.40;99.90;;;;;;5093369;28;20020;-70
2023/09/27 02:34:44;;;;;;;23.67;15.88;;;18.40;99.90;;;;;;5093462;28;20035;-68
2023/09/27 02:37:10;;;;;;;22.65;16.02;;;18.40;99.90;;;;;;5093687;28;20471;-69
2023/09/27 02:39:36;;;;;;;23.02;16.20;;;18.30;99.90;;;;;;5093118;28;20115;-69
2023/09/27 02:42:03;;;;;;;21.80;15.48;;;18.30;99.90;;;;;;5093503;28;20024;-69
2023/09/27 02:44:28;;;;;;;19.92;15.10;;;18.30;99.90;;;;;;5093043;28;20055;-68
2023/09/27 02:46:58;;;;;;;22.67;15.65;;;18.30;99.90;;;;;;5093727;28;20405;-69
2023/09/27 02:49:24;;;;;;;20.02;15.68;;;18.30;99.90;;;;;;5092800;28;20024;-68
2023/09/27 02:51:53;;;;;;;22.95;16.45;;;18.20;99.90;;;;;;5093553;28;20017;-68
2023/09/27 02:54:19;;;;;;;21.95;16.42;;;18.20;99.90;;;;;;5092954;28;20024;-71
2023/09/27 02:56:45;;;;;;;25.85;17.77;;;18.20;99.90;;;;;;5093336;28;20051;-69
2023/09/27 02:59:11;;;;;;;26.92;17.45;;;18.20;99.90;;;;;;5093314;28;20028;-69
2023/09/27 03:01:41;;;;;;;25.90;18.08;;;18.20;99.90;;;;;;5092867;28;20377;-69
2023/09/27 03:04:08;;;;;;;24.83;17.90;;;18.20;99.90;;;;;;5092973;28;20365;-69
2023/09/27 03:06:36;;;;;;;29.17;17.75;;;18.10;99.90;;;;;;5092771;28;20024;-69
2023/09/27 03:09:03;;;;;;;26.75;16.98;;;18.10;99.90;;;;;;5093146;28;20036;-69
2023/09/27 03:11:29;;;;;;;20.25;16.55;;;18.10;99.90;;;;;;5092667;28;20028;-69
2023/09/27 03:13:55;;;;;;;22.42;15.85;;;18.10;99.90;;;;;;5093103;28;20023;-67
2023/09/27 03:16:21;;;;;;;23.13;16.13;;;18.10;99.90;;;;;;5089074;28;20073;-70
2023/09/27 03:18:47;;;;;;;20.67;16.40;;;18.00;99.90;;;;;;5092260;28;20460;-69
2023/09/27 03:21:12;;;;;;;31.73;17.00;;;18.10;99.90;;;;;;5091805;28;20113;-69
2023/09/27 03:23:38;;;;;;;18.02;15.02;;;18.00;99.90;;;;;;5092283;28;20361;-69
2023/09/27 03:26:04;;;;;;;24.60;16.67;;;18.00;99.90;;;;;;5093256;28;20028;-69
2023/09/27 03:28:30;;;;;;;21.88;15.45;;;18.00;99.90;;;;;;5092387;28;20058;-70
2023/09/27 03:30:56;;;;;;;21.17;13.60;;;18.00;99.90;;;;;;5092900;28;20103;-70
2023/09/27 03:33:22;;;;;;;19.55;12.60;;;17.90;99.90;;;;;;5093126;28;20103;-70
2023/09/27 03:35:47;;;;;;;19.17;11.90;;;17.90;99.90;;;;;;5092869;28;20438;-70
2023/09/27 03:38:13;;;;;;;15.30;11.18;;;17.90;99.90;;;;;;5084889;28;20354;-69
2023/09/27 03:40:42;;;;;;;15.60;11.55;;;17.80;99.90;;;;;;5072291;28;20037;-69
2023/09/27 03:43:08;;;;;;;20.73;12.02;;;17.80;99.90;;;;;;5072929;28;20041;-69
2023/09/27 03:45:35;;;;;;;21.55;11.77;;;17.80;99.90;;;;;;5072202;28;20021;-68
2023/09/27 03:48:02;;;;;;;17.55;12.70;;;17.80;99.90;;;;;;5072506;28;20060;-69
2023/09/27 03:50:29;;;;;;;19.92;13.43;;;17.70;99.90;;;;;;5072347;28;20028;-69
2023/09/27 03:52:58;;;;;;;21.73;13.68;;;17.70;99.90;;;;;;5073081;28;20032;-68
2023/09/27 03:55:25;;;;;;;21.75;13.82;;;17.70;99.90;;;;;;5072032;28;20060;-70
2023/09/27 03:57:54;;;;;;;22.83;14.82;;;17.70;99.90;;;;;;5072492;28;20021;-68
2023/09/27 04:00:19;;;;;;;22.33;14.55;;;17.70;99.90;;;;;;5072347;28;20158;-69
2023/09/27 04:02:46;;;;;;;22.13;13.77;;;17.70;99.90;;;;;;5074426;28;20452;-68
2023/09/27 04:05:13;;;;;;;14.45;12.38;;;17.70;99.90;;;;;;5072102;28;20393;-68
2023/09/27 04:07:39;;;;;;;18.88;11.85;;;17.70;99.90;;;;;;5071962;28;20024;-69
2023/09/27 04:10:07;;;;;;;20.75;12.50;;;17.70;99.90;;;;;;5072232;28;20546;-69
2023/09/27 04:12:33;;;;;;;25.55;12.75;;;17.60;99.90;;;;;;5071838;28;20074;-69
2023/09/27 04:14:59;;;;;;;19.38;12.45;;;17.60;99.90;;;;;;5072270;28;20028;-69
2023/09/27 04:17:25;;;;;;;23.30;12.07;;;17.60;99.90;;;;;;5072219;28;20522;-69
2023/09/27 04:19:51;;;;;;;20.63;12.93;;;17.60;99.90;;;;;;5071900;28;20024;-69
2023/09/27 04:22:17;;;;;;;19.05;13.18;;;17.60;99.90;;;;;;5072177;28;20031;-69
2023/09/27 04:24:42;;;;;;;17.65;13.73;;;17.50;99.90;;;;;;5071731;28;20024;-68
2023/09/27 04:27:08;;;;;;;19.00;14.25;;;17.50;99.90;;;;;;5072121;28;20036;-69
2023/09/27 04:29:34;;;;;;;20.67;13.85;;;17.50;99.90;;;;;;5074051;28;20028;-69
2023/09/27 04:32:00;;;;;;;22.17;14.35;;;17.50;99.90;;;;;;5075765;28;20040;-68
2023/09/27 04:34:25;;;;;;;20.98;14.10;;;17.50;99.90;;;;;;5075967;28;20478;-67
2023/09/27 04:36:51;;;;;;;20.10;13.73;;;17.50;99.90;;;;;;5075353;28;20063;-69
2023/09/27 04:39:17;;;;;;;18.02;11.23;;;17.50;99.90;;;;;;5076878;28;20036;-69
2023/09/27 04:41:46;;;;;;;18.52;11.20;;;17.40;99.90;;;;;;5074963;28;20495;-68
2023/09/27 04:44:13;;;;;;;18.40;10.02;;;17.40;99.90;;;;;;5075573;28;20535;-69
2023/09/27 04:46:39;;;;;;;19.27;11.40;;;17.40;99.90;;;;;;5075024;28;20029;-69
2023/09/27 04:49:05;;;;;;;14.73;10.75;;;17.40;99.90;;;;;;5075716;28;20050;-68
2023/09/27 04:51:31;;;;;;;13.00;9.02;;;17.40;99.90;;;;;;5075088;28;20024;-68
2023/09/27 04:54:02;;;;;;;17.33;10.02;;;17.40;99.90;;;;;;5074941;28;20036;-68
2023/09/27 04:56:29;;;;;;;17.45;10.45;;;17.30;99.90;;;;;;5074590;28;20061;-69
2023/09/27 04:58:55;;;;;;;14.35;10.02;;;17.30;99.90;;;;;;5075045;28;20044;-69
2023/09/27 05:01:22;;;;;;;14.45;9.80;;;17.40;99.90;;;;;;5075281;28;20101;-69
2023/09/27 05:03:49;;;;;;;19.08;9.80;;;17.30;99.90;;;;;;5074538;28;20473;-68
2023/09/27 05:06:15;;;;;;;19.20;9.20;;;17.30;99.90;;;;;;5075251;28;20416;-68
2023/09/27 05:08:40;;;;;;;13.35;8.98;;;17.30;99.90;;;;;;5074750;28;20036;-69
2023/09/27 05:11:06;;;;;;;19.02;10.43;;;17.30;99.90;;;;;;5075183;28;20025;-70
2023/09/27 05:13:32;;;;;;;13.70;9.40;;;17.30;99.90;;;;;;5073279;28;20488;-70
2023/09/27 05:15:57;;;;;;;18.15;9.80;;;17.30;99.90;;;;;;5075281;28;20028;-69
2023/09/27 05:18:23;;;;;;;18.63;9.60;;;17.30;99.90;;;;;;5074833;28;20442;-69
2023/09/27 05:20:49;;;;;;;20.88;9.18;;;17.30;99.90;;;;;;5074204;28;20595;-69
2023/09/27 05:23:14;;;;;;;16.33;9.43;;;17.30;99.90;;;;;;5090269;28;20024;-69
2023/09/27 05:25:41;;;;;;;16.85;9.82;;;17.40;99.90;;;;;;5094611;28;20070;-69
2023/09/27 05:28:06;;;;;;;19.08;9.70;;;17.40;99.90;;;;;;5094960;28;20035;-69
2023/09/27 05:30:32;;;;;;;14.52;9.82;;;17.40;99.90;;;;;;5094730;28;20028;-70
2023/09/27 05:32:58;;;;;;;14.02;9.70;;;17.40;99.90;;;;;;5093640;28;20032;-69
2023/09/27 05:35:24;;;;;;;11.48;8.57;;;17.40;99.90;;;;;;5094784;28;20518;-69
2023/09/27 05:37:50;;;;;;;13.15;10.77;;;17.40;99.90;;;;;;5094432;28;20095;-69
2023/09/27 05:40:16;;;;;;;21.70;9.90;;;17.40;99.90;;;;;;5093904;28;20174;-69
2023/09/27 05:42:42;;;;;;;15.40;9.82;;;17.40;99.90;;;;;;5092569;28;20493;-70
2023/09/27 05:45:11;;;;;;;17.30;9.85;;;17.30;99.90;;;;;;5094507;28;20028;-68
2023/09/27 05:47:37;;;;;;;17.25;10.10;;;17.30;99.90;;;;;;5094190;28;20016;-68
2023/09/27 05:50:04;;;;;;;15.45;10.27;;;17.30;99.90;;;;;;5094499;28;20460;-69
2023/09/27 05:52:34;;;;;;;17.10;10.15;;;17.30;99.90;;;;;;5094305;28;20487;-69
2023/09/27 05:55:00;;;;;;;19.10;10.75;;;17.30;99.90;;;;;;5094516;28;20047;-68
2023/09/27 05:57:25;;;;;;;16.85;10.50;;;17.30;99.90;;;;;;5093850;28;20492;-68
2023/09/27 05:59:51;;;;;;;19.08;9.90;;;17.30;99.90;;;;;;5091733;28;20150;-68
2023/09/27 06:02:17;;;;;;;14.57;10.65;;;17.30;99.90;;;;;;5092590;28;20032;-68
2023/09/27 06:04:43;;;;;;;15.88;11.27;;;17.30;99.90;;;;;;5093742;28;20101;-69
2023/09/27 06:07:13;;;;;;;17.52;11.00;;;17.30;99.90;;;;;;5094099;28;20035;-69
2023/09/27 06:09:42;;;;;;;17.65;10.45;;;17.30;99.90;;;;;;5093583;28;20484;-69
2023/09/27 06:12:10;;;;;;;19.05;11.27;;;17.40;99.90;;;;;;5093998;28;20118;-68
2023/09/27 06:14:36;;;;;;;18.35;11.27;;;17.40;99.90;;;;;;5093604;28;20063;-69
2023/09/27 06:17:02;;;;;;;22.38;11.70;;;17.50;99.90;;;;;;5094187;28;20024;-69
2023/09/27 06:19:28;;;;;;;18.75;11.85;;;17.50;99.90;;;;;;5093990;28;20043;-69
2023/09/27 06:21:54;;;;;;;18.95;11.60;;;17.60;99.90;;;;;;5093580;28;20222;-68
2023/09/27 06:24:19;;;;;;;15.98;11.55;;;17.70;99.90;;;;;;5092536;28;20031;-68
2023/09/27 06:26:45;;;;;;;18.50;12.93;;;17.80;99.90;;;;;;5092127;28;20062;-68
2023/09/27 06:29:11;;;;;;;22.08;13.80;;;17.90;99.90;;;;;;5093658;28;20093;-68
2023/09/27 06:31:36;;;;;;;18.20;12.57;;;18.00;99.90;;;;;;5093461;28;20031;-68
2023/09/27 06:34:02;;;;;;;20.27;12.77;;;18.10;99.90;;;;;;5093431;28;20028;-68
2023/09/27 06:36:34;;;;;;;20.27;13.80;;;18.10;99.90;;;;;;5093495;28;20032;-68
2023/09/27 06:39:00;;;;;;;19.15;13.50;;;18.20;99.90;;;;;;5093361;28;20032;-69
2023/09/27 06:41:26;;;;;;;17.98;13.43;;;18.30;99.90;;;;;;5093172;28;20441;-68
2023/09/27 06:43:53;;;;;;;16.55;12.18;;;18.30;99.90;;;;;;5092669;28;20038;-68
2023/09/27 06:46:19;;;;;;;18.20;12.68;;;18.40;99.90;;;;;;5093259;28;20062;-69
2023/09/27 06:48:45;;;;;;;24.40;12.30;;;18.50;99.90;;;;;;5092933;28;20354;-69
2023/09/27 06:51:14;;;;;;;18.05;12.30;;;18.60;99.90;;;;;;5091720;28;20042;-68
2023/09/27 06:53:39;;;;;;;19.77;12.10;;;18.70;99.90;;;;;;5090506;28;20522;-70
2023/09/27 06:56:06;;;;;;;16.08;12.57;;;18.80;99.90;;;;;;5093072;28;20132;-70
2023/09/27 06:58:32;;;;;;;15.18;11.15;;;18.90;99.90;;;;;;5092750;28;20031;-68
2023/09/27 07:00:58;;;;;;;20.08;11.23;;;19.00;99.90;;;;;;5092383;28;20482;-68
2023/09/27 07:03:25;;;;;;;17.20;11.65;;;19.10;99.90;;;;;;5092964;28;20020;-68
2023/09/27 07:05:54;;;;;;;17.95;11.48;;;19.20;99.90;;;;;;5092457;28;20423;-69
2023/09/27 07:08:20;;;;;;;15.40;11.50;;;19.30;99.90;;;;;;5092447;28;20029;-69
2023/09/27 07:10:47;;;;;;;14.50;10.65;;;19.50;99.90;;;;;;5092342;28;20025;-69
2023/09/27 07:13:12;;;;;;;16.80;9.85;;;19.70;99.90;;;;;;5092880;28;20028;-69
2023/09/27 07:15:38;;;;;;;15.43;9.52;;;20.00;99.90;;;;;;5092446;28;20028;-71
2023/09/27 07:18:05;;;;;;;20.17;9.68;;;20.30;99.80;;;;;;5092891;28;20031;-69
2023/09/27 07:20:34;;;;;;;15.63;9.90;;;20.60;97.80;;;;;;5091606;28;20119;-69
2023/09/27 07:23:04;;;;;;;13.43;8.25;;;20.90;97.80;;;;;;5092434;28;20111;-69
2023/09/27 07:25:32;;;;;;;10.93;8.25;;;21.30;96.10;;;;;;5092685;28;20152;-68
2023/09/27 07:28:00;;;;;;;12.75;8.80;;;21.60;94.30;;;;;;5092321;28;20028;-68
2023/09/27 07:30:26;;;;;;;16.70;8.57;;;22.00;92.70;;;;;;5092860;28;20032;-69
2023/09/27 07:32:53;;;;;;;11.10;7.97;;;22.30;91.00;;;;;;5080452;28;20115;-69
2023/09/27 07:35:21;;;;;;;11.48;8.00;;;22.60;90.50;;;;;;5072190;28;20536;-68
2023/09/27 07:37:47;;;;;;;11.25;7.75;;;23.10;88.00;;;;;;5072089;28;20033;-69
2023/09/27 07:40:14;;;;;;;12.55;7.07;;;23.90;83.90;;;;;;5072307;28;20025;-68
2023/09/27 07:42:44;;;;;;;10.75;6.57;;;24.70;79.90;;;;;;5072170;28;20112;-71
2023/09/27 07:45:21;;;;;;;16.08;7.20;;;25.80;74.40;;;;;;5087549;28;20035;-68
2023/09/27 07:47:51;;;;;;;10.45;6.93;;;26.90;69.10;;;;;;5092186;28;20123;-68
2023/09/27 07:50:18;;;;;;;8.15;6.00;;;27.70;66.50;;;;;;5092637;28;20060;-68
2023/09/27 07:52:44;;;;;;;18.92;6.18;;;28.40;62.70;;;;;;5092290;28;20031;-70
2023/09/27 07:55:11;;;;;;;12.35;5.55;;;28.90;60.10;;;;;;5092494;28;20464;-69
2023/09/27 07:57:38;;;;;;;11.00;6.07;;;29.40;58.80;;;;;;5092701;28;20044;-69
2023/09/27 08:00:10;;;;;;;15.45;6.32;;;29.90;55.70;;;;;;5092013;28;20174;-68
2023/09/27 08:02:38;;;;;;;10.13;5.63;;;30.10;55.10;;;;;;5089148;28;20031;-68
2023/09/27 08:05:09;;;;;;;11.18;5.22;;;30.30;53.70;;;;;;5095029;28;20028;-68
2023/09/27 08:07:38;;;;;;;11.55;5.60;;;30.50;52.80;;;;;;5096485;28;20106;-69
2023/09/27 08:10:06;;;;;;;12.32;5.97;;;30.50;51.50;;;;;;5096074;28;20058;-69
2023/09/27 08:12:34;;;;;;;16.52;5.95;;;30.20;52.20;;;;;;5096201;28;20107;-69
2023/09/27 08:15:00;;;;;;;13.52;6.60;;;29.70;51.70;;;;;;5095379;28;20028;-69
2023/09/27 08:17:26;;;;;;;11.00;6.13;;;29.10;54.20;;;;;;5096086;28;20028;-69
2023/09/27 08:19:52;;;;;;;16.70;6.82;;;28.60;54.00;;;;;;5095501;28;20036;-69
2023/09/27 08:22:19;;;;;;;10.05;6.70;;;28.00;55.70;;;;;;5096220;28;20047;-69
2023/09/27 08:24:44;;;;;;;13.27;6.38;;;27.50;56.30;;;;;;5095715;28;20028;-69
2023/09/27 08:27:10;;;;;;;15.10;6.68;;;27.00;58.50;;;;;;5095915;28;20031;-69
2023/09/27 08:29:35;;;;;;;11.20;6.28;;;26.70;59.30;;;;;;5095694;28;20032;-69
2023/09/27 08:32:01;;;;;;;10.90;6.63;;;26.50;60.10;;;;;;5095407;28;20020;-69
2023/09/27 08:34:27;;;;;;;10.52;6.82;;;26.40;60.90;;;;;;5094518;28;20405;-69
2023/09/27 08:36:53;;;;;;;16.75;7.47;;;26.30;61.50;;;;;;5095425;28;20086;-69
2023/09/27 08:39:19;;;;;;;8.27;6.63;;;26.20;62.00;;;;;;5095595;28;20437;-69
2023/09/27 08:41:44;;;;;;;9.52;7.00;;;26.10;61.70;;;;;;5094848;28;20384;-68
2023/09/27 08:44:14;;;;;;;19.83;7.68;;;26.00;62.50;;;;;;5095400;28;20032;-69
2023/09/27 08:46:40;;;;;;;12.57;6.70;;;25.90;63.10;;;;;;5095485;28;20031;-69
2023/09/27 08:49:08;;;;;;;18.35;7.93;;;25.90;63.60;;;;;;5094885;28;20036;-69
2023/09/27 08:51:37;;;;;;;21.60;7.53;;;25.90;62.90;;;;;;5095124;28;20109;-69
2023/09/27 08:54:03;;;;;;;14.60;6.82;;;25.90;63.70;;;;;;5094404;28;20020;-68
2023/09/27 08:56:31;;;;;;;17.00;6.97;;;25.90;64.00;;;;;;5095138;28;20369;-69
2023/09/27 08:58:57;;;;;;;9.75;7.07;;;25.90;64.10;;;;;;5093459;28;20039;-68
2023/09/27 09:01:24;;;;;;;9.73;6.40;;;25.90;64.30;;;;;;5093661;28;20028;-68
2023/09/27 09:03:51;;;;;;;13.20;7.15;;;25.90;64.40;;;;;;5094667;28;20515;-68
2023/09/27 09:06:18;;;;;;;13.52;7.30;;;25.90;64.60;;;;;;5095322;28;20075;-68
2023/09/27 09:08:44;;;;;;;13.70;7.35;;;25.80;64.70;;;;;;5095183;28;20039;-68
2023/09/27 09:11:11;;;;;;;15.80;7.82;;;25.90;64.60;;;;;;5094752;28;20059;-68
2023/09/27 09:13:57;;;;;;;11.88;6.68;;;25.90;65.70;;;;;;5094939;28;20404;-68
2023/09/27 09:16:23;;;;;;;14.20;6.22;;;26.00;65.80;;;;;;5094028;28;20069;-68
2023/09/27 09:18:54;;;;;;;16.30;6.63;;;26.10;65.70;;;;;;5094458;28;20119;-67
2023/09/27 09:21:20;;;;;;;11.98;6.80;;;26.20;65.20;;;;;;5095013;28;20533;-69
2023/09/27 09:23:49;;;;;;;10.80;5.80;;;26.20;64.90;;;;;;5094619;28;20035;-68
2023/09/27 09:26:27;;;;;;;15.73;7.22;;;26.30;65.40;;;;;;5094563;28;20028;-69
2023/09/27 09:28:57;;;;;;;15.95;6.47;;;26.30;65.30;;;;;;5092615;28;20032;-69
2023/09/27 09:31:24;;;;;;;13.63;6.22;;;26.30;64.90;;;;;;5093668;28;20036;-68
2023/09/27 09:34:03;;;;;;;9.88;6.65;;;26.40;65.80;;;;;;5094364;28;20107;-71
2023/09/27 09:36:29;;;;;;;10.35;5.85;;;26.50;64.50;;;;;;5094234;28;20561;-67
2023/09/27 09:39:06;;;;;;;14.27;5.75;;;26.50;64.10;;;;;;5093659;28;20536;-68
2023/09/27 09:41:45;;;;;;;6.38;4.65;;;26.50;64.30;;;;;;5082275;28;20040;-68
2023/09/27 09:44:24;;;;;;;15.73;5.93;;;26.60;65.20;;;;;;5073857;28;20025;-68
2023/09/27 09:46:53;;;;;;;13.60;6.55;;;26.70;64.00;;;;;;5073566;28;20311;-68
2023/09/27 09:49:21;;;;;;;14.02;5.28;;;26.80;63.70;;;;;;5073938;28;20029;-68
2023/09/27 09:51:48;;;;;;;13.65;5.60;;;26.90;63.60;;;;;;5073992;28;20032;-68
2023/09/27 09:54:36;;;;;;;17.33;5.55;;;27.00;63.10;;;;;;5073563;28;20050;-69
2023/09/27 09:57:05;;;;;;;13.23;7.18;;;27.10;63.10;;;;;;5073490;28;20135;-68
2023/09/27 09:59:37;;;;;;;11.65;5.45;;;27.10;61.40;;;;;;5073648;28;20036;-68
2023/09/27 10:02:20;;;;;;;14.52;5.13;;;27.20;61.80;;;;;;5073340;28;20036;-68
2023/09/27 10:04:47;;;;;;;13.05;5.25;;;27.30;60.80;;;;;;5073460;28;20112;-68
2023/09/27 10:07:17;;;;;;;15.25;4.53;;;27.40;61.00;;;;;;5072612;28;20464;-69
2023/09/27 10:09:43;;;;;;;10.25;4.88;;;27.50;61.40;;;;;;5073375;28;20477;-69
2023/09/27 10:12:11;;;;;;;7.63;4.93;;;27.50;59.70;;;;;;5092515;28;20044;-69
2023/09/27 10:14:37;;;;;;;12.88;4.85;;;27.70;60.50;;;;;;5093444;28;20480;-69
2023/09/27 10:17:03;;;;;;;8.73;4.88;;;27.80;59.70;;;;;;5093281;28;20115;-69
2023/09/27 10:19:29;;;;;;;11.10;4.60;;;27.80;59.90;;;;;;5092199;28;20547;-69
2023/09/27 10:22:04;;;;;;;9.60;4.68;;;28.00;59.30;;;;;;5093358;28;20056;-69
2023/09/27 10:24:33;;;;;;;11.32;4.35;;;28.10;59.60;;;;;;5093845;28;20024;-69
2023/09/27 10:26:59;;;;;;;14.82;5.50;;;28.20;58.50;;;;;;5092764;28;20032;-68
2023/09/27 10:29:24;;;;;;;9.00;4.35;;;28.20;58.00;;;;;;5093582;28;20421;-69
2023/09/27 10:32:15;;;;;;;9.75;4.53;;;28.30;58.80;;;;;;5092878;28;20113;-69
2023/09/27 10:34:41;;;;;;;;;;;28.40;58.70;;;;;;5093837;28;20030;-68
2023/09/27 10:37:07;;;;;;;13.10;4.45;;;28.40;58.00;;;;;;5092887;28;19963;-69
2023/09/27 10:39:33;;;;;;;7.20;3.80;;;28.50;57.90;;;;;;5093273;28;20074;-69
2023/09/27 10:41:58;;;;;;;11.30;4.32;;;28.60;56.90;;;;;;5092849;28;20031;-69
2023/09/27 10:44:32;;;;;;;9.98;4.22;;;28.70;56.80;;;;;;5092892;28;20035;-68
2023/09/27 10:47:00;;;;;;;12.48;4.78;;;28.80;56.90;;;;;;5092838;28;20020;-69
2023/09/27 10:49:37;;;;;;;10.38;4.45;;;28.70;56.20;;;;;;5093344;28;20028;-69
2023/09/27 10:52:03;;;;;;;10.13;4.90;;;28.70;56.10;;;;;;5092720;28;20017;-68
2023/09/27 10:54:29;;;;;;;12.88;4.47;;;28.70;56.60;;;;;;5093125;28;20034;-69
2023/09/27 10:56:55;;;;;;;9.25;4.80;;;28.80;57.00;;;;;;5092349;28;20040;-69
2023/09/27 10:59:25;;;;;;;8.57;4.72;;;28.80;56.50;;;;;;5092913;28;20025;-69
2023/09/27 11:01:51;;;;;;;8.80;4.28;;;28.80;55.70;;;;;;5092896;28;20031;-69
2023/09/27 11:04:23;;;;;;;10.70;4.35;;;28.90;55.00;;;;;;5092344;28;20036;-69
2023/09/27 11:06:49;;;;;;;12.82;4.00;;;28.90;54.70;;;;;;5092470;28;20052;-69
2023/09/27 11:09:19;;;;;;;11.25;3.50;;;29.00;52.70;;;;;;5091982;28;20281;-68
2023/09/27 11:11:46;;;;;;;14.23;3.58;;;29.00;52.80;;;;;;5092803;28;20023;-69
2023/09/27 11:14:12;;;;;;;7.90;3.83;;;29.10;53.30;;;;;;5092317;28;20032;-69
2023/09/27 11:16:38;;;;;;;11.13;3.80;;;29.10;51.20;;;;;;5092587;28;20032;-69
2023/09/27 11:19:04;;;;;;;12.55;4.07;;;29.10;49.70;;;;;;5092087;28;20440;-69
2023/09/27 11:21:31;;;;;;;6.75;3.40;;;29.10;50.50;;;;;;5092610;28;20047;-69
2023/09/27 11:24:03;;;;;;;10.32;3.60;;;29.10;49.90;;;;;;5088596;28;20032;-70
2023/09/27 11:26:31;;;;;;;14.20;3.72;;;29.10;51.00;;;;;;5092422;28;20024;-69
2023/09/27 11:29:01;;;;;;;14.15;4.15;;;29.20;51.00;;;;;;5091970;28;20445;-70
2023/09/27 11:31:30;;;;;;;7.60;3.75;;;29.20;50.30;;;;;;5092461;28;20024;-69
2023/09/27 11:34:16;;;;;;;9.45;3.80;;;29.20;49.50;;;;;;5092816;28;20036;-69
2023/09/27 11:36:46;;;;;;;10.18;3.55;;;29.20;48.70;;;;;;5092681;28;20031;-69
2023/09/27 11:39:16;;;;;;;5.47;3.42;;;29.20;48.80;;;;;;5092435;28;20056;-69
2023/09/27 11:41:46;;;;;;;10.10;3.70;;;29.20;47.80;;;;;;5096913;28;20341;-69
2023/09/27 11:44:26;;;;;;;10.07;3.95;;;29.20;48.70;;;;;;5096577;28;20051;-69
2023/09/27 11:47:03;;;;;;;10.43;3.30;;;29.20;47.70;;;;;;5095169;28;20046;-69
2023/09/27 11:49:28;;;;;;;9.85;3.20;;;29.20;48.00;;;;;;5096817;28;20481;-69
2023/09/27 11:51:54;;;;;;;6.50;3.58;;;29.20;47.60;;;;;;5096413;28;20102;-69
2023/09/27 11:54:20;;;;;;;8.57;3.53;;;29.10;46.60;;;;;;5096001;28;20070;-69
2023/09/27 11:56:46;;;;;;;10.40;3.38;;;29.10;47.60;;;;;;5096338;28;20121;-69
2023/09/27 11:59:11;;;;;;;11.35;2.95;;;29.10;46.70;;;;;;5095790;28;20028;-69
2023/09/27 12:01:37;;;;;;;10.55;3.33;;;29.10;47.00;;;;;;5096180;28;20425;-69
2023/09/27 12:04:03;;;;;;;9.45;3.20;;;29.10;46.40;;;;;;5095685;28;20020;-69
2023/09/27 12:06:29;;;;;;;12.10;3.58;;;29.10;46.70;;;;;;5095912;28;20034;-69
2023/09/27 12:08:55;;;;;;;13.80;3.75;;;29.10;47.30;;;;;;5095642;28;20023;-69
2023/09/27 12:11:22;;;;;;;15.88;3.70;;;29.10;47.60;;;;;;5092251;28;20029;-69
2023/09/27 12:13:48;;;;;;;12.23;3.42;;;29.10;47.60;;;;;;5096028;28;20059;-69
2023/09/27 12:16:15;;;;;;;7.55;2.92;;;29.00;46.70;;;;;;5094210;28;20066;-69
2023/09/27 12:18:41;;;;;;;11.68;3.40;;;28.90;47.00;;;;;;5095924;28;20464;-69
2023/09/27 12:21:06;;;;;;;8.20;3.40;;;28.90;47.10;;;;;;5095417;28;20043;-70
2023/09/27 12:23:32;;;;;;;8.88;3.63;;;28.80;47.80;;;;;;5095674;28;20248;-67
2023/09/27 12:25:58;;;;;;;7.90;3.58;;;28.80;48.00;;;;;;5095469;28;20476;-69
2023/09/27 12:28:23;;;;;;;9.50;2.92;;;28.60;48.00;;;;;;5095032;28;20127;-70
2023/09/27 12:30:49;;;;;;;4.60;3.35;;;28.50;47.90;;;;;;5095750;28;20051;-69
2023/09/27 12:33:15;;;;;;;10.15;3.53;;;28.40;48.40;;;;;;5095354;28;20059;-69